sensor_id;sensor_type;location;lat;lon;timestamp;temperature;humidity
55036;DHT22;40936;53.008;6.556;2022-07-11T00:00:56;17.40;99.90
55036;DHT22;40936;53.008;6.556;2022-07-11T00:03:21;17.40;99.90
55036;DHT22;40936;53.008;6.556;2022-07-11T00:05:47;17.30;99.90
55036;DHT22;40936;53.008;6.556;2022-07-11T00:08:13;17.30;99.90
55036;DHT22;40936;53.008;6.556;2022-07-11T00:10:38;17.30;99.90
55036;DHT22;40936;53.008;6.556;2022-07-11T00:13:04;17.20;99.90
55036;DHT22;40936;53.008;6.556;2022-07-11T00:15:29;17.20;99.90
55036;DHT22;40936;53.008;6.556;2022-07-11T00:17:55;17.20;99.90
55036;DHT22;40936;53.008;6.556;2022-07-11T00:20:21;17.20;99.90
55036;DHT22;40936;53.008;6.556;2022-07-11T00:22:47;17.20;99.90
55036;DHT22;40936;53.008;6.556;2022-07-11T00:25:13;17.10;99.90
55036;DHT22;40936;53.008;6.556;2022-07-11T00:27:39;17.10;99.90
55036;DHT22;40936;53.008;6.556;2022-07-11T00:30:05;17.10;99.90
55036;DHT22;40936;53.008;6.556;2022-07-11T00:32:31;17.10;99.90
55036;DHT22;40936;53.008;6.556;2022-07-11T00:34:56;17.10;99.90
55036;DHT22;40936;53.008;6.556;2022-07-11T00:37:22;17.10;99.90
55036;DHT22;40936;53.008;6.556;2022-07-11T00:39:47;17.00;99.90
55036;DHT22;40936;53.008;6.556;2022-07-11T00:42:16;17.10;99.90
55036;DHT22;40936;53.008;6.556;2022-07-11T00:44:42;17.00;99.90
55036;DHT22;40936;53.008;6.556;2022-07-11T00:47:08;17.00;1.00
55036;DHT22;40936;53.008;6.556;2022-07-11T00:49:33;17.00;1.00
55036;DHT22;40936;53.008;6.556;2022-07-11T00:51:59;17.00;1.00
55036;DHT22;40936;53.008;6.556;2022-07-11T00:54:26;17.00;1.00
55036;DHT22;40936;53.008;6.556;2022-07-11T00:56:52;17.10;1.00
55036;DHT22;40936;53.008;6.556;2022-07-11T00:59:18;17.00;1.00
55036;DHT22;40936;53.008;6.556;2022-07-11T01:01:45;17.10;1.00
55036;DHT22;40936;53.008;6.556;2022-07-11T01:04:11;17.00;1.00
55036;DHT22;40936;53.008;6.556;2022-07-11T01:06:37;17.00;1.00
55036;DHT22;40936;53.008;6.556;2022-07-11T01:09:02;17.00;1.00
55036;DHT22;40936;53.008;6.556;2022-07-11T01:11:28;17.00;1.00
55036;DHT22;40936;53.008;6.556;2022-07-11T01:13:54;17.00;1.00
55036;DHT22;40936;53.008;6.556;2022-07-11T01:16:21;17.00;1.00
55036;DHT22;40936;53.008;6.556;2022-07-11T01:18:52;17.00;1.00
55036;DHT22;40936;53.008;6.556;2022-07-11T01:21:30;17.10;1.00
55036;DHT22;40936;53.008;6.556;2022-07-11T01:23:59;17.10;1.00
55036;DHT22;40936;53.008;6.556;2022-07-11T01:26:25;17.10;1.00
55036;DHT22;40936;53.008;6.556;2022-07-11T01:28:51;17.10;1.00
55036;DHT22;40936;53.008;6.556;2022-07-11T01:31:18;17.10;1.00
55036;DHT22;40936;53.008;6.556;2022-07-11T01:33:45;17.10;1.00
55036;DHT22;40936;53.008;6.556;2022-07-11T01:36:11;17.10;1.00
55036;DHT22;40936;53.008;6.556;2022-07-11T01:38:38;17.10;1.00
55036;DHT22;40936;53.008;6.556;2022-07-11T01:41:05;17.10;1.00
55036;DHT22;40936;53.008;6.556;2022-07-11T01:43:31;17.00;1.00
55036;DHT22;40936;53.008;6.556;2022-07-11T01:45:57;17.10;1.00
55036;DHT22;40936;53.008;6.556;2022-07-11T01:48:23;17.10;1.00
55036;DHT22;40936;53.008;6.556;2022-07-11T01:50:49;17.10;1.00
55036;DHT22;40936;53.008;6.556;2022-07-11T01:53:16;17.10;1.00
55036;DHT22;40936;53.008;6.556;2022-07-11T01:55:42;17.10;1.00
55036;DHT22;40936;53.008;6.556;2022-07-11T01:58:08;17.10;1.00
55036;DHT22;40936;53.008;6.556;2022-07-11T02:00:34;17.10;1.00
55036;DHT22;40936;53.008;6.556;2022-07-11T02:03:00;17.10;1.00
55036;DHT22;40936;53.008;6.556;2022-07-11T02:05:26;17.10;1.00
55036;DHT22;40936;53.008;6.556;2022-07-11T02:07:52;17.10;1.00
55036;DHT22;40936;53.008;6.556;2022-07-11T02:10:36;17.10;1.00
55036;DHT22;40936;53.008;6.556;2022-07-11T02:13:02;17.10;1.00
55036;DHT22;40936;53.008;6.556;2022-07-11T02:15:29;17.20;1.00
55036;DHT22;40936;53.008;6.556;2022-07-11T02:17:56;17.10;1.00
55036;DHT22;40936;53.008;6.556;2022-07-11T02:20:22;17.10;1.00
55036;DHT22;40936;53.008;6.556;2022-07-11T02:22:48;17.10;1.00
55036;DHT22;40936;53.008;6.556;2022-07-11T02:25:15;17.10;1.00
55036;DHT22;40936;53.008;6.556;2022-07-11T02:27:41;17.10;1.00
55036;DHT22;40936;53.008;6.556;2022-07-11T02:30:07;17.10;1.00
55036;DHT22;40936;53.008;6.556;2022-07-11T02:32:33;17.10;1.00
55036;DHT22;40936;53.008;6.556;2022-07-11T02:34:59;17.10;1.00
55036;DHT22;40936;53.008;6.556;2022-07-11T02:37:25;17.10;1.00
55036;DHT22;40936;53.008;6.556;2022-07-11T02:39:51;17.10;1.00
55036;DHT22;40936;53.008;6.556;2022-07-11T02:42:16;17.00;1.00
55036;DHT22;40936;53.008;6.556;2022-07-11T02:44:44;17.00;1.00
55036;DHT22;40936;53.008;6.556;2022-07-11T02:47:10;17.00;1.00
55036;DHT22;40936;53.008;6.556;2022-07-11T02:49:36;17.00;1.00
55036;DHT22;40936;53.008;6.556;2022-07-11T02:52:03;17.00;1.00
55036;DHT22;40936;53.008;6.556;2022-07-11T02:54:29;17.00;1.00
55036;DHT22;40936;53.008;6.556;2022-07-11T02:56:55;17.00;1.00
55036;DHT22;40936;53.008;6.556;2022-07-11T02:59:22;17.00;1.00
55036;DHT22;40936;53.008;6.556;2022-07-11T03:01:48;17.00;1.00
55036;DHT22;40936;53.008;6.556;2022-07-11T03:04:14;17.00;1.00
55036;DHT22;40936;53.008;6.556;2022-07-11T03:06:39;17.00;1.00
55036;DHT22;40936;53.008;6.556;2022-07-11T03:09:06;17.10;1.00
55036;DHT22;40936;53.008;6.556;2022-07-11T03:11:33;17.10;1.00
55036;DHT22;40936;53.008;6.556;2022-07-11T03:13:59;17.10;1.00
55036;DHT22;40936;53.008;6.556;2022-07-11T03:16:29;17.10;1.00
55036;DHT22;40936;53.008;6.556;2022-07-11T03:18:56;17.00;1.30
55036;DHT22;40936;53.008;6.556;2022-07-11T03:21:23;17.10;3.70
55036;DHT22;40936;53.008;6.556;2022-07-11T03:23:49;17.10;3.10
55036;DHT22;40936;53.008;6.556;2022-07-11T03:26:16;17.10;2.10
55036;DHT22;40936;53.008;6.556;2022-07-11T03:28:42;17.10;4.30
55036;DHT22;40936;53.008;6.556;2022-07-11T03:31:07;17.10;5.10
55036;DHT22;40936;53.008;6.556;2022-07-11T03:33:33;17.10;4.60
55036;DHT22;40936;53.008;6.556;2022-07-11T03:35:59;17.10;4.80
55036;DHT22;40936;53.008;6.556;2022-07-11T03:38:24;17.10;4.90
55036;DHT22;40936;53.008;6.556;2022-07-11T03:40:50;17.10;4.80
55036;DHT22;40936;53.008;6.556;2022-07-11T03:43:16;17.10;9.60
55036;DHT22;40936;53.008;6.556;2022-07-11T03:45:42;17.20;6.90
55036;DHT22;40936;53.008;6.556;2022-07-11T03:48:08;17.10;7.70
55036;DHT22;40936;53.008;6.556;2022-07-11T03:50:34;17.50;6.00
55036;DHT22;40936;53.008;6.556;2022-07-11T03:53:00;17.10;8.10
55036;DHT22;40936;53.008;6.556;2022-07-11T03:55:27;17.10;10.00
55036;DHT22;40936;53.008;6.556;2022-07-11T03:57:53;17.20;8.80
55036;DHT22;40936;53.008;6.556;2022-07-11T04:00:19;17.20;11.70
55036;DHT22;40936;53.008;6.556;2022-07-11T04:02:48;17.10;17.60
55036;DHT22;40936;53.008;6.556;2022-07-11T04:05:15;17.10;16.00
55036;DHT22;40936;53.008;6.556;2022-07-11T04:07:43;17.10;18.10
55036;DHT22;40936;53.008;6.556;2022-07-11T04:10:09;17.10;20.00
55036;DHT22;40936;53.008;6.556;2022-07-11T04:12:35;17.20;19.00
55036;DHT22;40936;53.008;6.556;2022-07-11T04:15:03;17.20;20.70
55036;DHT22;40936;53.008;6.556;2022-07-11T04:17:32;17.20;19.90
55036;DHT22;40936;53.008;6.556;2022-07-11T04:19:57;17.20;21.60
55036;DHT22;40936;53.008;6.556;2022-07-11T04:22:23;17.30;21.00
55036;DHT22;40936;53.008;6.556;2022-07-11T04:24:50;17.20;19.30
55036;DHT22;40936;53.008;6.556;2022-07-11T04:27:24;16.40;15.80
55036;DHT22;40936;53.008;6.556;2022-07-11T04:30:26;17.40;15.40
55036;DHT22;40936;53.008;6.556;2022-07-11T05:11:42;17.70;17.80
55036;DHT22;40936;53.008;6.556;2022-07-11T05:14:21;17.80;20.00
55036;DHT22;40936;53.008;6.556;2022-07-11T05:17:00;17.80;21.20
55036;DHT22;40936;53.008;6.556;2022-07-11T05:19:26;17.90;17.90
55036;DHT22;40936;53.008;6.556;2022-07-11T05:21:52;17.90;17.50
55036;DHT22;40936;53.008;6.556;2022-07-11T05:24:20;18.00;20.50
55036;DHT22;40936;53.008;6.556;2022-07-11T05:26:48;18.30;18.00
55036;DHT22;40936;53.008;6.556;2022-07-11T05:29:14;18.10;7.10
55036;DHT22;40936;53.008;6.556;2022-07-11T05:31:40;18.10;4.90
55036;DHT22;40936;53.008;6.556;2022-07-11T05:37:05;17.80;5.90
55036;DHT22;40936;53.008;6.556;2022-07-11T05:39:33;18.10;3.50
55036;DHT22;40936;53.008;6.556;2022-07-11T05:45:03;18.30;2.50
55036;DHT22;40936;53.008;6.556;2022-07-11T05:47:32;18.40;3.90
55036;DHT22;40936;53.008;6.556;2022-07-11T05:49:58;18.20;3.50
55036;DHT22;40936;53.008;6.556;2022-07-11T05:52:24;18.10;8.20
55036;DHT22;40936;53.008;6.556;2022-07-11T05:54:54;18.10;1.00
55036;DHT22;40936;53.008;6.556;2022-07-11T05:57:23;18.20;1.00
55036;DHT22;40936;53.008;6.556;2022-07-11T05:59:56;18.20;5.60
55036;DHT22;40936;53.008;6.556;2022-07-11T06:02:22;18.20;19.00
55036;DHT22;40936;53.008;6.556;2022-07-11T06:04:59;18.30;15.00
55036;DHT22;40936;53.008;6.556;2022-07-11T06:07:24;18.30;5.70
55036;DHT22;40936;53.008;6.556;2022-07-11T06:10:13;18.30;13.70
55036;DHT22;40936;53.008;6.556;2022-07-11T06:12:44;18.20;14.30
55036;DHT22;40936;53.008;6.556;2022-07-11T06:15:15;18.30;13.10
55036;DHT22;40936;53.008;6.556;2022-07-11T06:17:41;18.30;12.60
55036;DHT22;40936;53.008;6.556;2022-07-11T06:20:09;18.30;13.50
55036;DHT22;40936;53.008;6.556;2022-07-11T06:22:35;18.30;13.80
55036;DHT22;40936;53.008;6.556;2022-07-11T06:25:01;17.20;17.90
55036;DHT22;40936;53.008;6.556;2022-07-11T06:27:32;18.50;12.90
55036;DHT22;40936;53.008;6.556;2022-07-11T06:29:58;18.40;12.20
55036;DHT22;40936;53.008;6.556;2022-07-11T06:32:24;18.50;11.50
55036;DHT22;40936;53.008;6.556;2022-07-11T06:34:50;18.50;22.10
55036;DHT22;40936;53.008;6.556;2022-07-11T06:37:15;18.70;19.00
55036;DHT22;40936;53.008;6.556;2022-07-11T06:39:41;17.70;13.10
55036;DHT22;40936;53.008;6.556;2022-07-11T06:42:07;18.90;10.40
55036;DHT22;40936;53.008;6.556;2022-07-11T06:44:33;18.90;6.60
55036;DHT22;40936;53.008;6.556;2022-07-11T06:46:58;19.00;5.90
55036;DHT22;40936;53.008;6.556;2022-07-11T06:49:24;19.00;5.40
55036;DHT22;40936;53.008;6.556;2022-07-11T06:51:50;19.10;4.80
55036;DHT22;40936;53.008;6.556;2022-07-11T06:54:16;19.10;1.00
55036;DHT22;40936;53.008;6.556;2022-07-11T06:56:41;19.20;1.00
55036;DHT22;40936;53.008;6.556;2022-07-11T06:59:07;19.30;1.00
55036;DHT22;40936;53.008;6.556;2022-07-11T07:01:33;19.30;1.00
55036;DHT22;40936;53.008;6.556;2022-07-11T07:03:59;19.30;1.00
55036;DHT22;40936;53.008;6.556;2022-07-11T07:06:24;19.20;1.00
55036;DHT22;40936;53.008;6.556;2022-07-11T07:08:50;18.20;1.00
55036;DHT22;40936;53.008;6.556;2022-07-11T07:11:16;19.00;1.00
55036;DHT22;40936;53.008;6.556;2022-07-11T07:13:42;19.00;1.00
55036;DHT22;40936;53.008;6.556;2022-07-11T07:16:07;19.00;1.00
55036;DHT22;40936;53.008;6.556;2022-07-11T07:21:00;19.20;1.00
55036;DHT22;40936;53.008;6.556;2022-07-11T07:23:25;19.20;1.00
55036;DHT22;40936;53.008;6.556;2022-07-11T07:25:53;19.30;1.00
55036;DHT22;40936;53.008;6.556;2022-07-11T07:28:19;19.40;1.00
55036;DHT22;40936;53.008;6.556;2022-07-11T07:30:44;19.50;1.00
55036;DHT22;40936;53.008;6.556;2022-07-11T07:33:12;19.60;1.00
55036;DHT22;40936;53.008;6.556;2022-07-11T07:35:38;19.80;1.00
55036;DHT22;40936;53.008;6.556;2022-07-11T07:38:04;19.80;1.00
55036;DHT22;40936;53.008;6.556;2022-07-11T07:40:29;19.90;1.00
55036;DHT22;40936;53.008;6.556;2022-07-11T07:42:55;19.90;1.00
55036;DHT22;40936;53.008;6.556;2022-07-11T07:45:21;19.80;1.00
55036;DHT22;40936;53.008;6.556;2022-07-11T07:47:47;20.00;1.00
55036;DHT22;40936;53.008;6.556;2022-07-11T07:50:12;20.40;1.00
55036;DHT22;40936;53.008;6.556;2022-07-11T07:52:38;20.70;1.00
55036;DHT22;40936;53.008;6.556;2022-07-11T07:55:05;21.50;1.00
55036;DHT22;40936;53.008;6.556;2022-07-11T07:57:31;22.40;1.00
55036;DHT22;40936;53.008;6.556;2022-07-11T07:59:57;23.00;1.00
55036;DHT22;40936;53.008;6.556;2022-07-11T08:02:41;23.10;99.90
55036;DHT22;40936;53.008;6.556;2022-07-11T08:05:07;22.40;99.90
55036;DHT22;40936;53.008;6.556;2022-07-11T08:07:34;21.70;99.90
55036;DHT22;40936;53.008;6.556;2022-07-11T08:10:01;21.40;99.90
55036;DHT22;40936;53.008;6.556;2022-07-11T08:12:27;21.30;99.90
55036;DHT22;40936;53.008;6.556;2022-07-11T08:14:53;21.60;99.90
55036;DHT22;40936;53.008;6.556;2022-07-11T08:17:18;22.30;99.90
55036;DHT22;40936;53.008;6.556;2022-07-11T08:19:44;23.00;99.90
55036;DHT22;40936;53.008;6.556;2022-07-11T08:22:10;23.40;99.90
55036;DHT22;40936;53.008;6.556;2022-07-11T08:24:36;23.60;99.90
55036;DHT22;40936;53.008;6.556;2022-07-11T08:27:03;23.80;99.90
55036;DHT22;40936;53.008;6.556;2022-07-11T08:29:29;23.90;75.50
55036;DHT22;40936;53.008;6.556;2022-07-11T08:31:54;23.90;51.40
55036;DHT22;40936;53.008;6.556;2022-07-11T08:34:20;23.80;65.60
55036;DHT22;40936;53.008;6.556;2022-07-11T08:36:45;23.50;24.00
55036;DHT22;40936;53.008;6.556;2022-07-11T08:39:11;23.20;33.90
55036;DHT22;40936;53.008;6.556;2022-07-11T08:41:42;23.00;53.80
55036;DHT22;40936;53.008;6.556;2022-07-11T08:44:08;22.70;71.50
55036;DHT22;40936;53.008;6.556;2022-07-11T08:46:36;22.40;87.00
55036;DHT22;40936;53.008;6.556;2022-07-11T08:49:02;22.30;95.20
55036;DHT22;40936;53.008;6.556;2022-07-11T08:51:29;22.30;99.90
55036;DHT22;40936;53.008;6.556;2022-07-11T08:53:55;22.20;99.90
55036;DHT22;40936;53.008;6.556;2022-07-11T08:56:21;21.90;66.80
55036;DHT22;40936;53.008;6.556;2022-07-11T08:58:48;21.60;58.20
55036;DHT22;40936;53.008;6.556;2022-07-11T09:01:16;21.40;93.10
55036;DHT22;40936;53.008;6.556;2022-07-11T09:03:42;21.20;94.90
55036;DHT22;40936;53.008;6.556;2022-07-11T09:06:08;21.20;99.90
55036;DHT22;40936;53.008;6.556;2022-07-11T09:08:36;21.30;99.90
55036;DHT22;40936;53.008;6.556;2022-07-11T09:11:03;21.70;99.90
55036;DHT22;40936;53.008;6.556;2022-07-11T09:13:29;21.90;97.30
55036;DHT22;40936;53.008;6.556;2022-07-11T09:16:05;22.00;99.90
55036;DHT22;40936;53.008;6.556;2022-07-11T09:18:36;21.90;99.90
55036;DHT22;40936;53.008;6.556;2022-07-11T09:23:49;21.60;75.00
55036;DHT22;40936;53.008;6.556;2022-07-11T09:26:39;21.30;72.00
55036;DHT22;40936;53.008;6.556;2022-07-11T09:31:38;21.10;99.90
55036;DHT22;40936;53.008;6.556;2022-07-11T09:34:06;21.10;94.50
55036;DHT22;40936;53.008;6.556;2022-07-11T09:39:05;21.40;96.40
55036;DHT22;40936;53.008;6.556;2022-07-11T09:41:35;21.70;99.90
55036;DHT22;40936;53.008;6.556;2022-07-11T09:44:12;22.00;99.90
55036;DHT22;40936;53.008;6.556;2022-07-11T09:46:39;22.20;56.90
55036;DHT22;40936;53.008;6.556;2022-07-11T09:49:05;22.20;60.40
55036;DHT22;40936;53.008;6.556;2022-07-11T09:51:33;22.20;39.20
55036;DHT22;40936;53.008;6.556;2022-07-11T09:54:00;22.20;34.90
55036;DHT22;40936;53.008;6.556;2022-07-11T09:56:33;22.10;21.20
55036;DHT22;40936;53.008;6.556;2022-07-11T09:59:03;22.10;30.90
55036;DHT22;40936;53.008;6.556;2022-07-11T10:01:30;22.00;25.90
55036;DHT22;40936;53.008;6.556;2022-07-11T10:03:56;22.00;19.50
55036;DHT22;40936;53.008;6.556;2022-07-11T10:06:22;22.00;27.10
55036;DHT22;40936;53.008;6.556;2022-07-11T10:08:50;21.90;3.70
55036;DHT22;40936;53.008;6.556;2022-07-11T10:11:15;21.80;1.00
55036;DHT22;40936;53.008;6.556;2022-07-11T10:13:41;21.80;3.50
55036;DHT22;40936;53.008;6.556;2022-07-11T10:19:08;21.90;36.80
55036;DHT22;40936;53.008;6.556;2022-07-11T10:22:16;21.90;13.40
55036;DHT22;40936;53.008;6.556;2022-07-11T10:24:59;21.80;3.80
55036;DHT22;40936;53.008;6.556;2022-07-11T10:30:50;21.50;5.60
55036;DHT22;40936;53.008;6.556;2022-07-11T10:33:17;21.40;12.90
55036;DHT22;40936;53.008;6.556;2022-07-11T10:35:45;21.40;28.80
55036;DHT22;40936;53.008;6.556;2022-07-11T10:38:11;21.60;25.00
55036;DHT22;40936;53.008;6.556;2022-07-11T10:40:45;21.80;29.70
55036;DHT22;40936;53.008;6.556;2022-07-11T10:48:28;22.40;3.40
55036;DHT22;40936;53.008;6.556;2022-07-11T10:53:49;22.50;1.00
55036;DHT22;40936;53.008;6.556;2022-07-11T11:01:32;22.30;1.00
55036;DHT22;40936;53.008;6.556;2022-07-11T11:04:43;22.30;1.00
55036;DHT22;40936;53.008;6.556;2022-07-11T11:09:57;22.00;1.00
55036;DHT22;40936;53.008;6.556;2022-07-11T11:15:57;22.20;1.00
55036;DHT22;40936;53.008;6.556;2022-07-11T11:28:53;22.50;1.00
55036;DHT22;40936;53.008;6.556;2022-07-11T11:31:19;22.60;1.00
55036;DHT22;40936;53.008;6.556;2022-07-11T11:33:46;22.90;1.00
55036;DHT22;40936;53.008;6.556;2022-07-11T11:36:19;23.30;1.00
55036;DHT22;40936;53.008;6.556;2022-07-11T11:38:46;23.70;1.00
55036;DHT22;40936;53.008;6.556;2022-07-11T11:41:25;24.00;1.00
55036;DHT22;40936;53.008;6.556;2022-07-11T11:43:53;24.30;1.00
55036;DHT22;40936;53.008;6.556;2022-07-11T11:46:26;24.30;1.00
55036;DHT22;40936;53.008;6.556;2022-07-11T11:49:03;24.30;1.00
55036;DHT22;40936;53.008;6.556;2022-07-11T11:51:31;24.10;1.00
55036;DHT22;40936;53.008;6.556;2022-07-11T11:53:57;23.90;1.00
55036;DHT22;40936;53.008;6.556;2022-07-11T11:56:27;23.70;1.00
55036;DHT22;40936;53.008;6.556;2022-07-11T11:58:59;23.60;1.00
55036;DHT22;40936;53.008;6.556;2022-07-11T12:01:30;23.50;1.00
55036;DHT22;40936;53.008;6.556;2022-07-11T12:04:01;23.50;1.00
55036;DHT22;40936;53.008;6.556;2022-07-11T12:06:29;23.60;1.00
55036;DHT22;40936;53.008;6.556;2022-07-11T12:09:21;23.60;1.00
55036;DHT22;40936;53.008;6.556;2022-07-11T12:12:06;24.10;1.00
55036;DHT22;40936;53.008;6.556;2022-07-11T12:14:50;24.40;1.00
55036;DHT22;40936;53.008;6.556;2022-07-11T12:17:26;24.60;1.00
55036;DHT22;40936;53.008;6.556;2022-07-11T12:19:52;24.90;1.00
55036;DHT22;40936;53.008;6.556;2022-07-11T12:22:18;25.30;1.00
55036;DHT22;40936;53.008;6.556;2022-07-11T12:24:51;25.30;1.00
55036;DHT22;40936;53.008;6.556;2022-07-11T12:27:21;25.10;1.00
55036;DHT22;40936;53.008;6.556;2022-07-11T12:29:47;24.80;1.00
55036;DHT22;40936;53.008;6.556;2022-07-11T12:32:20;24.50;1.00
55036;DHT22;40936;53.008;6.556;2022-07-11T12:34:49;24.30;1.00
55036;DHT22;40936;53.008;6.556;2022-07-11T12:37:16;24.30;1.00
55036;DHT22;40936;53.008;6.556;2022-07-11T12:39:53;24.40;1.00
55036;DHT22;40936;53.008;6.556;2022-07-11T12:42:26;24.20;1.00
55036;DHT22;40936;53.008;6.556;2022-07-11T12:47:35;24.60;1.00
55036;DHT22;40936;53.008;6.556;2022-07-11T12:50:21;24.80;1.00
55036;DHT22;40936;53.008;6.556;2022-07-11T12:52:50;24.80;1.00
55036;DHT22;40936;53.008;6.556;2022-07-11T12:55:34;24.50;1.00
55036;DHT22;40936;53.008;6.556;2022-07-11T13:00:34;24.40;1.00
55036;DHT22;40936;53.008;6.556;2022-07-11T13:03:02;24.60;1.00
55036;DHT22;40936;53.008;6.556;2022-07-11T13:05:29;24.80;1.00
55036;DHT22;40936;53.008;6.556;2022-07-11T13:07:55;24.90;1.00
55036;DHT22;40936;53.008;6.556;2022-07-11T13:10:39;24.80;1.00
55036;DHT22;40936;53.008;6.556;2022-07-11T13:13:18;25.00;1.00
55036;DHT22;40936;53.008;6.556;2022-07-11T13:15:46;25.30;1.00
55036;DHT22;40936;53.008;6.556;2022-07-11T13:18:16;25.70;1.00
55036;DHT22;40936;53.008;6.556;2022-07-11T13:20:42;25.90;99.90
55036;DHT22;40936;53.008;6.556;2022-07-11T13:23:08;25.70;99.90
55036;DHT22;40936;53.008;6.556;2022-07-11T13:25:34;25.70;99.90
55036;DHT22;40936;53.008;6.556;2022-07-11T13:28:01;26.10;99.90
55036;DHT22;40936;53.008;6.556;2022-07-11T13:30:27;26.20;99.90
55036;DHT22;40936;53.008;6.556;2022-07-11T13:32:56;26.20;99.90
55036;DHT22;40936;53.008;6.556;2022-07-11T13:35:23;26.30;99.90
55036;DHT22;40936;53.008;6.556;2022-07-11T13:37:49;26.10;99.90
55036;DHT22;40936;53.008;6.556;2022-07-11T13:40:17;26.10;99.90
55036;DHT22;40936;53.008;6.556;2022-07-11T13:42:44;26.20;99.90
55036;DHT22;40936;53.008;6.556;2022-07-11T13:45:19;26.30;99.90
55036;DHT22;40936;53.008;6.556;2022-07-11T13:47:46;26.50;99.90
55036;DHT22;40936;53.008;6.556;2022-07-11T13:50:13;26.40;99.90
55036;DHT22;40936;53.008;6.556;2022-07-11T13:52:39;26.20;99.90
55036;DHT22;40936;53.008;6.556;2022-07-11T13:55:05;26.30;99.90
55036;DHT22;40936;53.008;6.556;2022-07-11T13:57:31;26.40;99.90
55036;DHT22;40936;53.008;6.556;2022-07-11T13:59:57;26.60;99.90
55036;DHT22;40936;53.008;6.556;2022-07-11T14:02:23;26.60;99.90
55036;DHT22;40936;53.008;6.556;2022-07-11T14:04:50;26.60;99.90
55036;DHT22;40936;53.008;6.556;2022-07-11T14:07:16;26.50;99.90
55036;DHT22;40936;53.008;6.556;2022-07-11T14:09:42;26.50;99.90
55036;DHT22;40936;53.008;6.556;2022-07-11T14:12:08;26.40;99.90
55036;DHT22;40936;53.008;6.556;2022-07-11T14:14:34;26.50;99.90
55036;DHT22;40936;53.008;6.556;2022-07-11T14:17:00;26.40;99.90
55036;DHT22;40936;53.008;6.556;2022-07-11T14:19:26;26.40;99.90
55036;DHT22;40936;53.008;6.556;2022-07-11T14:21:53;26.20;99.90
55036;DHT22;40936;53.008;6.556;2022-07-11T14:24:19;26.10;99.90
55036;DHT22;40936;53.008;6.556;2022-07-11T14:26:45;25.90;99.90
55036;DHT22;40936;53.008;6.556;2022-07-11T14:29:11;25.70;99.90
55036;DHT22;40936;53.008;6.556;2022-07-11T14:31:38;25.50;99.90
55036;DHT22;40936;53.008;6.556;2022-07-11T14:34:04;25.30;99.90
55036;DHT22;40936;53.008;6.556;2022-07-11T14:36:30;25.30;99.90
55036;DHT22;40936;53.008;6.556;2022-07-11T14:38:56;25.30;99.90
55036;DHT22;40936;53.008;6.556;2022-07-11T14:41:22;25.40;99.90
55036;DHT22;40936;53.008;6.556;2022-07-11T14:43:48;25.50;99.90
55036;DHT22;40936;53.008;6.556;2022-07-11T14:46:15;25.50;99.90
55036;DHT22;40936;53.008;6.556;2022-07-11T14:48:43;25.50;99.90
55036;DHT22;40936;53.008;6.556;2022-07-11T14:51:09;25.50;99.90
55036;DHT22;40936;53.008;6.556;2022-07-11T14:53:35;25.50;99.90
55036;DHT22;40936;53.008;6.556;2022-07-11T14:56:04;25.50;99.90
55036;DHT22;40936;53.008;6.556;2022-07-11T14:58:30;25.40;99.90
55036;DHT22;40936;53.008;6.556;2022-07-11T15:00:56;25.30;99.90
55036;DHT22;40936;53.008;6.556;2022-07-11T15:03:22;25.20;99.90
55036;DHT22;40936;53.008;6.556;2022-07-11T15:06:06;25.00;99.90
55036;DHT22;40936;53.008;6.556;2022-07-11T15:08:33;24.90;99.90
55036;DHT22;40936;53.008;6.556;2022-07-11T15:11:18;24.80;99.90
55036;DHT22;40936;53.008;6.556;2022-07-11T15:14:02;24.60;99.90
55036;DHT22;40936;53.008;6.556;2022-07-11T15:16:28;24.50;99.90
55036;DHT22;40936;53.008;6.556;2022-07-11T15:18:57;24.50;99.90
55036;DHT22;40936;53.008;6.556;2022-07-11T15:21:23;24.40;99.90
55036;DHT22;40936;53.008;6.556;2022-07-11T15:23:50;24.40;99.90
55036;DHT22;40936;53.008;6.556;2022-07-11T15:26:15;24.30;99.90
55036;DHT22;40936;53.008;6.556;2022-07-11T15:28:43;24.20;99.90
55036;DHT22;40936;53.008;6.556;2022-07-11T15:31:09;24.20;99.90
55036;DHT22;40936;53.008;6.556;2022-07-11T15:33:35;24.20;99.90
55036;DHT22;40936;53.008;6.556;2022-07-11T15:36:01;24.30;99.90
55036;DHT22;40936;53.008;6.556;2022-07-11T15:38:27;24.50;99.90
55036;DHT22;40936;53.008;6.556;2022-07-11T15:40:52;24.70;99.90
55036;DHT22;40936;53.008;6.556;2022-07-11T15:43:18;24.70;99.90
55036;DHT22;40936;53.008;6.556;2022-07-11T15:45:44;24.80;99.90
55036;DHT22;40936;53.008;6.556;2022-07-11T15:48:10;24.80;99.90
55036;DHT22;40936;53.008;6.556;2022-07-11T15:50:36;24.90;99.90
55036;DHT22;40936;53.008;6.556;2022-07-11T15:53:01;24.90;99.90
55036;DHT22;40936;53.008;6.556;2022-07-11T15:55:28;24.90;99.90
55036;DHT22;40936;53.008;6.556;2022-07-11T15:57:53;24.90;99.90
55036;DHT22;40936;53.008;6.556;2022-07-11T16:00:19;24.90;99.90
55036;DHT22;40936;53.008;6.556;2022-07-11T16:02:46;24.80;99.90
55036;DHT22;40936;53.008;6.556;2022-07-11T16:05:13;24.80;99.90
55036;DHT22;40936;53.008;6.556;2022-07-11T16:07:39;24.70;99.90
55036;DHT22;40936;53.008;6.556;2022-07-11T16:10:06;24.70;99.90
55036;DHT22;40936;53.008;6.556;2022-07-11T16:12:33;24.70;99.90
55036;DHT22;40936;53.008;6.556;2022-07-11T16:15:02;24.80;99.90
55036;DHT22;40936;53.008;6.556;2022-07-11T16:17:28;24.80;99.90
55036;DHT22;40936;53.008;6.556;2022-07-11T16:19:54;24.80;99.90
55036;DHT22;40936;53.008;6.556;2022-07-11T16:22:20;24.90;99.90
55036;DHT22;40936;53.008;6.556;2022-07-11T16:24:45;24.80;99.90
55036;DHT22;40936;53.008;6.556;2022-07-11T16:27:12;24.80;99.90
55036;DHT22;40936;53.008;6.556;2022-07-11T16:29:38;24.80;99.90
55036;DHT22;40936;53.008;6.556;2022-07-11T16:32:03;24.80;99.90
55036;DHT22;40936;53.008;6.556;2022-07-11T16:34:29;24.70;99.90
55036;DHT22;40936;53.008;6.556;2022-07-11T16:36:56;24.70;99.90
55036;DHT22;40936;53.008;6.556;2022-07-11T16:39:22;24.60;99.90
55036;DHT22;40936;53.008;6.556;2022-07-11T16:42:06;24.50;99.90
55036;DHT22;40936;53.008;6.556;2022-07-11T16:44:51;24.40;99.90
55036;DHT22;40936;53.008;6.556;2022-07-11T16:47:16;24.20;99.90
55036;DHT22;40936;53.008;6.556;2022-07-11T16:49:42;24.20;99.90
55036;DHT22;40936;53.008;6.556;2022-07-11T16:52:08;24.10;99.90
55036;DHT22;40936;53.008;6.556;2022-07-11T16:54:34;24.00;99.90
55036;DHT22;40936;53.008;6.556;2022-07-11T16:56:59;24.00;99.90
55036;DHT22;40936;53.008;6.556;2022-07-11T16:59:25;24.00;99.90
55036;DHT22;40936;53.008;6.556;2022-07-11T17:01:51;23.90;99.90
55036;DHT22;40936;53.008;6.556;2022-07-11T17:04:17;23.90;99.90
55036;DHT22;40936;53.008;6.556;2022-07-11T17:06:46;23.90;99.90
55036;DHT22;40936;53.008;6.556;2022-07-11T17:09:11;23.90;99.90
55036;DHT22;40936;53.008;6.556;2022-07-11T17:11:37;23.90;99.90
55036;DHT22;40936;53.008;6.556;2022-07-11T17:14:03;23.90;99.90
55036;DHT22;40936;53.008;6.556;2022-07-11T17:16:29;23.80;99.90
55036;DHT22;40936;53.008;6.556;2022-07-11T17:18:57;23.70;99.90